Terminal Aerodrome Forecast
Issued by NWS Twin Cities, MN

Home | Current Version | Previous Version | Text Only | Print | Product List | Glossary On
Versions: 1 2 3 4 5 6 7 8 9 10 11 12 13 14 15 16 17 18 19 20 21 22 23 24 25
520
FTUS43 KMPX 090520
TAFMSP
TAF
KMSP 090520Z 0906/1012 30008KT P6SM BKN035
      TEMPO 0910/0914 BKN015
     FM091400 29006KT P6SM BKN020
     FM091800 28006KT P6SM SCT035 SCT100=

USA.gov is the U.S. government's official web portal to all federal, state and local government web resources and services.